Sun Prairie, WI (53590)

12:49 AM CDT on September 04, 2015 (GMT -0500)
Northside School | | Change Station
CLOSE
Current Station
Personal Weather Station
Location: Sun Prairie, WI
Elevation: 1007 ft
Nearby Weather Stations

Elev 1007 ft 43.19 °N, 89.22 °W | Updated 35 seconds ago

Overcast
Overcast
71.1 °F
Feels Like 71.1 °F
N
0.0
Wind Variable Wind from NE
Gusts 0.0 mph

Today
High -- | Low -- °F
--% Chance of Precip.
Yesterday
High -- | Low -- °F
Precip. -- in
6:24 AM 7:26 PM
Waning Gibbous, 63% visible
Pressure 29.95 in
Visibility 10.0 miles
Clouds Overcast 2800 ft
Dew Point 68 °F
Humidity 89%
Rainfall 0.00 in
Snow Depth Not available.
UV 0 out of 12
Pollen 4.80 out of 12
Air Quality Not available.
Flu Activity Not available.
METAR KMSN 040453Z AUTO 04004KT 10SM OVC028 22/19 A2997 RMK AO2 SLP141 T02170189
Pressure 29.95 in
Visibility 10.0 miles
Clouds Overcast 2800 ft
Dew Point 68 °F
Humidity 89%
Rainfall 0.00 in
Snow Depth Not available.
UV 0 out of 12
Pollen 4.80 out of 12
Air Quality Not available.
Flu Activity Not available.
METAR KMSN 040453Z AUTO 04004KT 10SM OVC028 22/19 A2997 RMK AO2 SLP141 T02170189

10-Day Weather Forecast

×

Almanac

Astronomy

Sep. 04, 2015 Rise Set
Actual Time
Civil Twilight
Nautical Twilight
Astronomical Twilight
Moon
Length of Visible Light
Length of Day
Tomorrow will be .
, % of the Moon is Illuminated

Today's Extremes

State Highs State Lows

Community

WunderPhotos

Upload Photos

1,852,129 photos uploaded!

WunderBlogs® & News

Nearby

Air Quality

  Air Quality AQ Index Pollutant
Not available.

Snow Depth

Station Depth Elevation

Earthquake Activity

City Distance Mag. Time & Date
Minimum magnitude displayed is 2.5.

Coastal Water Temperatures

Place Temperature

Stations

Nearby Weather Stations

Station Location Temp. Windchill Dew Point Humidity Wind Precip. Elev Updated Type